Terminal Aerodrome Forecast
Issued by NWS

Home | Current Version | Previous Version | Text Only | Print | Product List | Glossary On
Versions: 1 2 3 4 5 6 7 8 9 10 11 12 13 14 15 16 17 18 19 20
000
FTUS46 KLOX 021100
TAFPMD
TAF
KPMD 021125Z 0212/0312 VRB03KT P6SM VCSH SCT035 BKN080
     FM021400 VRB03KT P6SM SCT080
     FM021700 23012KT P6SM BKN060
     FM022100 24018G28KT P6SM SCT035 BKN060
     FM030300 25012KT P6SM SCT080=

USA.gov is the U.S. government's official web portal to all federal, state and local government web resources and services.